createdAt,value
2023-03-30T00:02:12.864Z,84.06
2023-03-30T00:04:43.074Z,84.84
2023-03-30T00:07:11.660Z,84.60
2023-03-30T00:09:42.398Z,100.00
2023-03-30T00:12:10.479Z,100.00
2023-03-30T00:14:41.437Z,100.00
2023-03-30T00:17:09.590Z,100.00
2023-03-30T00:19:37.757Z,100.00
2023-03-30T00:22:07.660Z,100.00
2023-03-30T00:24:35.820Z,91.70
2023-03-30T00:27:03.873Z,87.45
2023-03-30T00:29:31.530Z,85.78
2023-03-30T00:31:59.245Z,86.22
2023-03-30T00:34:26.960Z,84.12
2023-03-30T00:36:54.672Z,85.44
2023-03-30T00:39:26.581Z,86.07
2023-03-30T00:41:54.259Z,87.14
2023-03-30T00:44:59.251Z,87.80
2023-03-30T00:47:27.136Z,86.55
2023-03-30T00:49:54.847Z,86.07
2023-03-30T00:52:24.981Z,86.21
2023-03-30T00:54:55.166Z,85.50
2023-03-30T00:57:23.957Z,86.64
2023-03-30T00:59:52.344Z,84.97
2023-03-30T01:02:21.599Z,83.23
2023-03-30T01:04:51.608Z,84.27
2023-03-30T01:07:19.380Z,82.95
2023-03-30T01:09:48.140Z,83.06
2023-03-30T01:12:17.194Z,83.81
2023-03-30T01:14:45.164Z,83.73
2023-03-30T01:17:17.729Z,84.02
2023-03-30T01:20:12.412Z,82.66
2023-03-30T01:23:14.631Z,81.59
2023-03-30T01:25:59.452Z,82.12
2023-03-30T01:28:37.798Z,82.72
2023-03-30T01:31:16.348Z,81.03
2023-03-30T01:34:15.116Z,81.79
2023-03-30T01:37:04.199Z,82.06
2023-03-30T01:39:44.673Z,81.03
2023-03-30T01:42:19.107Z,81.28
2023-03-30T01:44:52.864Z,79.34
2023-03-30T01:47:23.794Z,78.86
2023-03-30T01:49:57.346Z,78.41
2023-03-30T01:52:28.703Z,78.30
2023-03-30T01:54:59.475Z,77.82
2023-03-30T01:57:32.558Z,76.66
2023-03-30T02:00:07.595Z,78.68
2023-03-30T02:02:35.599Z,76.82
2023-03-30T02:05:06.355Z,75.93
2023-03-30T02:07:35.814Z,75.23
2023-03-30T02:10:08.066Z,76.15
2023-03-30T02:12:36.497Z,76.83
2023-03-30T02:15:07.526Z,76.96
2023-03-30T02:17:35.819Z,77.40
2023-03-30T02:20:08.371Z,79.02
2023-03-30T02:22:36.269Z,78.94
2023-03-30T02:25:06.467Z,75.98
2023-03-30T02:27:35.116Z,76.21
2023-03-30T02:30:02.852Z,76.63
2023-03-30T02:32:38.148Z,78.68
2023-03-30T02:35:22.265Z,78.88
2023-03-30T02:38:14.874Z,78.44
2023-03-30T02:40:50.594Z,78.41
2023-03-30T02:43:26.949Z,78.36
2023-03-30T02:46:02.199Z,79.00
2023-03-30T02:48:40.059Z,77.83
2023-03-30T02:51:21.108Z,77.06
2023-03-30T02:53:53.421Z,77.76
2023-03-30T02:56:25.531Z,77.36
2023-03-30T02:58:56.485Z,77.48
2023-03-30T03:01:29.054Z,77.60
2023-03-30T03:03:59.064Z,77.57
2023-03-30T03:06:27.486Z,78.53
2023-03-30T03:08:56.623Z,78.49
2023-03-30T03:11:25.799Z,78.47
2023-03-30T03:13:53.547Z,79.01
2023-03-30T03:16:21.396Z,79.68
2023-03-30T03:18:49.629Z,79.12
2023-03-30T03:21:17.337Z,79.68
2023-03-30T03:23:48.242Z,79.40
2023-03-30T03:26:15.956Z,78.78
2023-03-30T03:28:45.007Z,79.39
2023-03-30T03:31:14.064Z,78.89
2023-03-30T03:33:41.814Z,80.13
2023-03-30T03:36:12.204Z,79.50
2023-03-30T03:38:40.008Z,79.59
2023-03-30T03:41:08.271Z,79.95
2023-03-30T03:43:36.697Z,79.51
2023-03-30T03:46:05.881Z,79.61
2023-03-30T03:48:33.647Z,79.42
2023-03-30T03:51:01.504Z,79.79
2023-03-30T03:53:29.827Z,78.70
2023-03-30T03:55:57.505Z,78.75
2023-03-30T03:58:26.368Z,78.67
2023-03-30T04:00:59.365Z,78.98
2023-03-30T04:03:28.644Z,79.69
2023-03-30T04:06:00.286Z,77.98
2023-03-30T04:08:28.551Z,78.21
2023-03-30T04:10:56.301Z,78.99
2023-03-30T04:13:23.994Z,79.97
2023-03-30T04:15:51.815Z,78.47
2023-03-30T04:18:19.570Z,77.76
2023-03-30T04:20:49.355Z,77.26
2023-03-30T04:23:21.755Z,79.37
2023-03-30T04:25:51.793Z,79.62
2023-03-30T04:28:21.835Z,77.48
2023-03-30T04:30:50.721Z,76.30
2023-03-30T04:33:18.464Z,76.16
2023-03-30T04:35:46.749Z,77.77
2023-03-30T04:38:22.576Z,77.19
2023-03-30T04:40:50.755Z,77.81
2023-03-30T04:43:20.039Z,77.26
2023-03-30T04:45:51.853Z,78.47
2023-03-30T04:48:20.691Z,80.10
2023-03-30T04:50:50.295Z,80.63
2023-03-30T04:53:19.777Z,80.76
2023-03-30T04:55:49.742Z,79.88
2023-03-30T04:58:17.828Z,79.40
2023-03-30T05:00:45.942Z,79.13
2023-03-30T05:03:13.717Z,79.38
2023-03-30T05:05:41.584Z,79.57
2023-03-30T05:08:09.252Z,79.76
2023-03-30T05:10:38.305Z,79.44
2023-03-30T05:13:06.116Z,80.01
2023-03-30T05:15:33.778Z,80.06
2023-03-30T05:18:01.472Z,80.76
2023-03-30T05:20:29.204Z,80.93
2023-03-30T05:22:56.903Z,81.10
2023-03-30T05:25:24.795Z,81.79
2023-03-30T05:27:53.934Z,80.70
2023-03-30T05:30:21.655Z,84.43
2023-03-30T05:32:49.329Z,85.67
2023-03-30T05:35:17.047Z,84.72
2023-03-30T05:37:44.717Z,86.31
2023-03-30T05:40:13.284Z,83.79
2023-03-30T05:42:41.028Z,83.39
2023-03-30T05:45:11.812Z,82.13
2023-03-30T05:47:39.588Z,81.56
2023-03-30T05:50:09.266Z,83.88
2023-03-30T05:52:37.000Z,83.30
2023-03-30T05:55:05.102Z,87.81
2023-03-30T05:57:33.601Z,90.21
2023-03-30T06:00:01.577Z,88.38
2023-03-30T06:02:30.849Z,85.30
2023-03-30T06:04:58.679Z,85.22
2023-03-30T06:07:26.494Z,89.11
2023-03-30T06:09:54.122Z,86.65
2023-03-30T06:12:22.097Z,88.37
2023-03-30T06:14:49.735Z,90.11
2023-03-30T06:17:17.529Z,89.02
2023-03-30T06:19:46.573Z,87.77
2023-03-30T06:22:14.339Z,89.06
2023-03-30T06:24:41.974Z,88.56
2023-03-30T06:27:09.674Z,89.29
2023-03-30T06:29:38.353Z,90.13
2023-03-30T06:32:06.707Z,88.87
2023-03-30T06:34:34.411Z,86.23
2023-03-30T06:37:03.558Z,84.37
2023-03-30T06:39:31.364Z,83.24
2023-03-30T06:41:59.080Z,82.45
2023-03-30T06:44:27.123Z,80.42
2023-03-30T06:46:54.824Z,85.25
2023-03-30T06:49:22.525Z,86.21
2023-03-30T06:51:50.424Z,86.34
2023-03-30T06:54:20.452Z,87.31
2023-03-30T06:56:48.429Z,89.98
2023-03-30T06:59:16.473Z,89.83
2023-03-30T07:01:44.632Z,90.19
2023-03-30T07:04:12.774Z,91.72
2023-03-30T07:06:40.468Z,90.00
2023-03-30T07:09:08.204Z,91.05
2023-03-30T07:11:37.244Z,89.13
2023-03-30T07:14:05.441Z,86.61
2023-03-30T07:16:33.188Z,84.05
2023-03-30T07:19:00.897Z,87.25
2023-03-30T07:21:28.635Z,86.16
2023-03-30T07:23:56.798Z,85.81
2023-03-30T07:26:24.577Z,82.77
2023-03-30T07:28:53.668Z,88.07
2023-03-30T07:31:21.917Z,85.97
2023-03-30T07:33:49.719Z,88.91
2023-03-30T07:36:17.829Z,88.40
2023-03-30T07:38:45.685Z,88.50
2023-03-30T07:41:15.606Z,85.80
2023-03-30T07:43:43.629Z,79.96
2023-03-30T07:46:13.193Z,81.73
2023-03-30T07:48:41.285Z,80.31
2023-03-30T07:51:10.928Z,82.55
2023-03-30T07:53:38.881Z,80.93
2023-03-30T07:56:07.372Z,78.64
2023-03-30T07:58:35.037Z,79.41
2023-03-30T08:01:05.035Z,78.28
2023-03-30T08:03:34.533Z,75.81
2023-03-30T08:06:05.521Z,74.19
2023-03-30T08:08:34.163Z,76.94
2023-03-30T08:11:02.365Z,78.37
2023-03-30T08:13:30.324Z,76.06
2023-03-30T08:15:58.098Z,75.45
2023-03-30T08:18:27.214Z,79.77
2023-03-30T08:20:58.060Z,77.74
2023-03-30T08:23:25.675Z,73.91
2023-03-30T08:25:53.372Z,72.09
2023-03-30T08:28:21.625Z,71.10
2023-03-30T08:30:49.711Z,70.41
2023-03-30T08:33:17.469Z,69.69
2023-03-30T08:35:45.521Z,67.54
2023-03-30T08:38:17.799Z,66.95
2023-03-30T08:40:46.246Z,67.90
2023-03-30T08:43:34.637Z,69.55
2023-03-30T08:46:03.056Z,71.23
2023-03-30T08:48:37.373Z,74.90
2023-03-30T08:51:12.885Z,79.49
2023-03-30T08:53:42.229Z,79.93
2023-03-30T08:56:15.011Z,77.93
2023-03-30T08:58:47.061Z,76.45
2023-03-30T09:01:20.136Z,75.52
2023-03-30T09:04:00.382Z,73.24
2023-03-30T09:06:35.214Z,71.75
2023-03-30T09:09:05.849Z,72.32
2023-03-30T09:11:35.930Z,72.50
2023-03-30T09:14:05.997Z,68.11
2023-03-30T09:16:38.788Z,68.75
2023-03-30T09:19:12.552Z,66.84
2023-03-30T09:21:41.148Z,64.55
2023-03-30T09:24:14.413Z,68.66
2023-03-30T09:26:49.109Z,68.56
2023-03-30T09:29:20.627Z,71.65
2023-03-30T09:31:51.821Z,73.41
2023-03-30T09:34:27.078Z,72.89
2023-03-30T09:36:57.823Z,74.32
2023-03-30T09:39:28.960Z,75.87
2023-03-30T09:42:14.264Z,76.33
2023-03-30T09:44:46.238Z,80.39
2023-03-30T09:47:26.483Z,80.01
2023-03-30T09:49:58.738Z,76.13
2023-03-30T09:52:27.614Z,73.72
2023-03-30T09:54:57.347Z,71.99
2023-03-30T09:57:27.689Z,69.93
2023-03-30T09:59:56.470Z,69.41
2023-03-30T10:02:27.673Z,66.81
2023-03-30T10:05:02.217Z,66.03
2023-03-30T10:07:32.729Z,68.40
2023-03-30T10:10:04.230Z,65.44
2023-03-30T10:12:31.910Z,64.35
2023-03-30T10:15:04.136Z,68.51
2023-03-30T10:17:32.089Z,68.89
2023-03-30T10:20:25.477Z,67.57
2023-03-30T10:22:54.916Z,65.61
2023-03-30T10:25:28.225Z,66.69
2023-03-30T10:27:57.677Z,70.29
2023-03-30T10:30:28.365Z,67.19
2023-03-30T10:32:57.949Z,66.65
2023-03-30T10:35:27.662Z,66.11
2023-03-30T10:37:56.901Z,64.13
2023-03-30T10:40:28.595Z,63.43
2023-03-30T10:42:58.475Z,60.60
2023-03-30T10:45:30.070Z,56.54
2023-03-30T10:48:17.842Z,53.93
2023-03-30T10:50:50.608Z,53.09
2023-03-30T10:53:29.045Z,55.08
2023-03-30T10:56:03.817Z,56.06
2023-03-30T10:58:42.803Z,57.78
2023-03-30T11:01:14.004Z,57.06
2023-03-30T11:03:45.780Z,56.12
2023-03-30T11:06:18.339Z,53.71
2023-03-30T11:08:47.912Z,54.55
2023-03-30T11:11:19.712Z,55.71
2023-03-30T11:13:51.320Z,54.22
2023-03-30T11:16:22.256Z,56.28
2023-03-30T11:18:54.296Z,56.83
2023-03-30T11:21:27.060Z,54.25
2023-03-30T11:23:56.422Z,53.11
2023-03-30T11:26:32.966Z,55.03
2023-03-30T11:29:07.121Z,55.01
2023-03-30T11:31:47.072Z,53.86
2023-03-30T11:34:24.208Z,53.90
2023-03-30T11:36:56.940Z,54.27
2023-03-30T11:39:32.105Z,54.28
2023-03-30T11:42:06.928Z,53.26
2023-03-30T11:44:34.593Z,51.72
2023-03-30T11:47:13.893Z,52.81
2023-03-30T11:49:53.284Z,55.28
2023-03-30T11:52:29.411Z,56.02
2023-03-30T11:55:12.351Z,55.48
2023-03-30T11:57:46.121Z,54.05
2023-03-30T12:00:34.531Z,54.68
2023-03-30T12:03:28.661Z,53.67
2023-03-30T12:06:01.914Z,52.37
2023-03-30T12:08:44.902Z,53.14
2023-03-30T12:11:18.422Z,53.77
2023-03-30T12:13:51.741Z,54.17
2023-03-30T12:16:21.742Z,54.50
2023-03-30T12:18:59.056Z,54.96
2023-03-30T12:21:32.824Z,55.89
2023-03-30T12:24:06.371Z,55.58
2023-03-30T12:26:37.857Z,54.26
2023-03-30T12:29:52.566Z,54.81
2023-03-30T12:32:08.017Z,54.01
2023-03-30T12:34:37.190Z,53.83
2023-03-30T12:37:10.032Z,53.70
2023-03-30T12:39:44.867Z,52.77
2023-03-30T12:42:26.356Z,52.60
2023-03-30T12:45:21.156Z,53.85
2023-03-30T12:48:07.549Z,52.33
2023-03-30T12:50:40.843Z,56.64
2023-03-30T12:53:31.668Z,58.57
2023-03-30T12:56:04.919Z,58.05
2023-03-30T12:58:59.926Z,59.39
2023-03-30T13:01:56.790Z,61.25
2023-03-30T13:04:26.539Z,66.46
2023-03-30T13:06:55.768Z,65.16
2023-03-30T13:09:53.478Z,62.96
2023-03-30T13:12:29.257Z,57.29
2023-03-30T13:15:02.560Z,54.84
2023-03-30T13:17:48.938Z,56.32
2023-03-30T13:20:28.275Z,55.73
2023-03-30T13:23:16.756Z,55.25
2023-03-30T13:25:49.035Z,53.01
2023-03-30T13:28:46.244Z,54.38
2023-03-30T13:31:25.749Z,56.02
2023-03-30T13:34:01.415Z,54.34
2023-03-30T13:36:31.709Z,52.42
2023-03-30T13:39:05.412Z,52.37
2023-03-30T13:41:40.817Z,52.22
2023-03-30T13:44:24.995Z,50.16
2023-03-30T13:46:54.730Z,50.13
2023-03-30T13:49:40.784Z,50.21
2023-03-30T13:52:12.166Z,48.94
2023-03-30T13:54:40.881Z,49.99
2023-03-30T13:57:11.508Z,49.36
2023-03-30T13:59:43.483Z,51.95
2023-03-30T14:02:15.348Z,52.90
2023-03-30T14:04:45.394Z,52.69
2023-03-30T14:07:17.075Z,52.86
2023-03-30T14:09:45.556Z,54.75
2023-03-30T14:12:14.971Z,55.83
2023-03-30T14:14:47.021Z,57.33
2023-03-30T14:17:18.576Z,56.30
2023-03-30T14:19:57.297Z,55.66
2023-03-30T14:22:27.606Z,56.35
2023-03-30T14:24:59.369Z,56.37
2023-03-30T14:27:32.936Z,57.73
2023-03-30T14:30:00.588Z,57.05
2023-03-30T14:32:28.464Z,56.58
2023-03-30T14:34:57.730Z,56.40
2023-03-30T14:37:26.920Z,54.89
2023-03-30T14:39:56.153Z,54.25
2023-03-30T14:42:27.197Z,54.48
2023-03-30T14:44:56.690Z,53.97
2023-03-30T14:47:26.116Z,53.11
2023-03-30T14:49:55.704Z,51.08
2023-03-30T14:52:26.652Z,49.29
2023-03-30T14:55:05.664Z,50.34
2023-03-30T14:57:38.039Z,49.33
2023-03-30T15:00:20.441Z,49.38
2023-03-30T15:02:50.706Z,48.74
2023-03-30T15:05:19.196Z,48.53
2023-03-30T15:07:49.702Z,49.50
2023-03-30T15:10:23.946Z,49.75
2023-03-30T15:12:52.677Z,50.33
2023-03-30T15:15:23.071Z,50.16
2023-03-30T15:17:51.469Z,52.38
2023-03-30T15:20:19.748Z,51.81
2023-03-30T15:22:51.686Z,52.03
2023-03-30T15:25:20.717Z,53.40
2023-03-30T15:27:52.898Z,56.13
2023-03-30T15:30:34.432Z,55.58
2023-03-30T15:33:02.581Z,54.78
2023-03-30T15:35:33.008Z,54.11
2023-03-30T15:38:03.256Z,55.47
2023-03-30T15:40:36.131Z,57.17
2023-03-30T15:43:15.391Z,57.24
2023-03-30T15:45:48.763Z,58.75
2023-03-30T15:48:19.384Z,58.72
2023-03-30T15:50:50.944Z,60.76
2023-03-30T15:53:24.725Z,60.15
2023-03-30T15:55:53.185Z,60.87
2023-03-30T15:58:25.744Z,61.07
2023-03-30T16:00:53.575Z,61.27
2023-03-30T16:03:34.318Z,60.85
2023-03-30T16:06:02.095Z,62.18
2023-03-30T16:08:31.237Z,61.84
2023-03-30T16:10:59.042Z,62.31
2023-03-30T16:13:26.738Z,61.78
2023-03-30T16:15:54.927Z,61.62
2023-03-30T16:18:22.688Z,60.02
2023-03-30T16:20:50.414Z,60.04
2023-03-30T16:23:18.111Z,58.96
2023-03-30T16:25:47.277Z,59.43
2023-03-30T16:28:17.489Z,59.27
2023-03-30T16:30:47.613Z,59.97
2023-03-30T16:33:15.405Z,61.72
2023-03-30T16:35:43.144Z,59.70
2023-03-30T16:38:12.310Z,60.11
2023-03-30T16:40:43.013Z,60.08
2023-03-30T16:43:12.332Z,60.81
2023-03-30T16:45:40.399Z,59.54
2023-03-30T16:48:08.130Z,59.45
2023-03-30T16:50:38.702Z,59.80
2023-03-30T16:53:07.427Z,60.56
2023-03-30T16:55:35.348Z,61.19
2023-03-30T16:58:03.116Z,62.55
2023-03-30T17:00:33.544Z,63.88
2023-03-30T17:03:01.227Z,70.03
2023-03-30T17:05:30.013Z,72.06
2023-03-30T17:07:58.493Z,75.86
2023-03-30T17:10:27.826Z,79.54
2023-03-30T17:12:56.265Z,79.63
2023-03-30T17:15:25.355Z,78.07
2023-03-30T17:17:54.589Z,77.61
2023-03-30T17:20:26.181Z,76.73
2023-03-30T17:22:53.858Z,73.32
2023-03-30T17:25:23.778Z,71.74
2023-03-30T17:27:52.507Z,71.36
2023-03-30T17:30:23.537Z,71.30
2023-03-30T17:32:52.096Z,71.76
2023-03-30T17:35:21.801Z,69.64
2023-03-30T17:37:49.792Z,69.18
2023-03-30T17:40:20.496Z,70.39
2023-03-30T17:42:48.514Z,67.95
2023-03-30T17:45:18.008Z,68.19
2023-03-30T17:47:46.157Z,69.41
2023-03-30T17:50:27.152Z,68.61
2023-03-30T17:52:55.874Z,67.67
2023-03-30T17:55:25.390Z,67.11
2023-03-30T17:57:53.211Z,68.58
2023-03-30T18:00:24.358Z,68.17
2023-03-30T18:02:52.636Z,68.75
2023-03-30T18:05:21.285Z,68.93
2023-03-30T18:07:50.844Z,68.12
2023-03-30T18:10:24.329Z,68.90
2023-03-30T18:12:52.768Z,71.01
2023-03-30T18:15:21.844Z,70.15
2023-03-30T18:17:49.920Z,69.56
2023-03-30T18:20:23.961Z,70.74
2023-03-30T18:22:53.058Z,72.76
2023-03-30T18:25:31.632Z,73.00
2023-03-30T18:28:00.460Z,73.03
2023-03-30T18:30:30.472Z,73.04
2023-03-30T18:32:58.615Z,73.10
2023-03-30T18:35:27.644Z,72.00
2023-03-30T18:37:57.116Z,73.38
2023-03-30T18:40:27.598Z,72.79
2023-03-30T18:42:55.806Z,72.60
2023-03-30T18:45:26.798Z,72.18
2023-03-30T18:47:54.758Z,73.47
2023-03-30T18:50:24.972Z,73.70
2023-03-30T18:52:52.687Z,75.35
2023-03-30T18:55:21.785Z,75.98
2023-03-30T18:57:49.784Z,75.54
2023-03-30T19:00:21.403Z,76.74
2023-03-30T19:02:50.017Z,76.51
2023-03-30T19:05:19.996Z,76.18
2023-03-30T19:07:47.825Z,76.52
2023-03-30T19:10:17.206Z,75.87
2023-03-30T19:12:46.948Z,74.91
2023-03-30T19:15:19.990Z,74.06
2023-03-30T19:17:48.066Z,77.57
2023-03-30T19:20:16.452Z,77.59
2023-03-30T19:22:44.264Z,78.74
2023-03-30T19:25:13.161Z,76.78
2023-03-30T19:27:51.973Z,79.44
2023-03-30T19:30:32.279Z,79.74
2023-03-30T19:33:01.826Z,77.05
2023-03-30T19:35:30.621Z,78.79
2023-03-30T19:37:58.361Z,81.38
2023-03-30T19:40:26.409Z,80.60
2023-03-30T19:42:54.265Z,80.64
2023-03-30T19:45:23.515Z,81.82
2023-03-30T19:47:52.770Z,80.30
2023-03-30T19:50:23.217Z,79.86
2023-03-30T19:52:51.418Z,78.76
2023-03-30T19:55:20.056Z,77.63
2023-03-30T19:57:47.772Z,78.04
2023-03-30T20:00:17.319Z,76.67
2023-03-30T20:02:47.261Z,76.70
2023-03-30T20:05:16.663Z,75.66
2023-03-30T20:07:45.596Z,77.42
2023-03-30T20:10:15.630Z,77.12
2023-03-30T20:12:43.665Z,77.44
2023-03-30T20:15:12.326Z,77.59
2023-03-30T20:17:40.636Z,77.91
2023-03-30T20:20:12.778Z,79.28
2023-03-30T20:22:43.063Z,77.46
2023-03-30T20:25:13.048Z,76.58
2023-03-30T20:27:40.908Z,76.58
2023-03-30T20:30:11.602Z,78.95
2023-03-30T20:32:39.724Z,78.16
2023-03-30T20:38:04.443Z,78.56
2023-03-30T20:40:32.382Z,78.54
2023-03-30T20:43:02.159Z,78.72
2023-03-30T20:45:30.572Z,79.47
2023-03-30T20:47:58.643Z,80.63
2023-03-30T20:50:27.220Z,78.22
2023-03-30T20:52:54.949Z,78.19
2023-03-30T20:55:24.040Z,79.79
2023-03-30T20:57:51.728Z,83.32
2023-03-30T21:00:20.642Z,80.46
2023-03-30T21:02:48.314Z,81.40
2023-03-30T21:05:16.240Z,79.45
2023-03-30T21:07:47.163Z,81.07
2023-03-30T21:10:16.375Z,81.46
2023-03-30T21:12:45.578Z,83.37
2023-03-30T21:15:14.083Z,80.97
2023-03-30T21:17:41.967Z,82.49
2023-03-30T21:20:11.638Z,81.96
2023-03-30T21:22:39.316Z,80.36
2023-03-30T21:25:07.662Z,82.42
2023-03-30T21:27:35.495Z,83.76
2023-03-30T21:30:05.196Z,85.31
2023-03-30T21:32:32.997Z,82.71
2023-03-30T21:35:00.749Z,81.38
2023-03-30T21:37:28.394Z,80.96
2023-03-30T21:39:56.200Z,81.07
2023-03-30T21:42:23.888Z,80.62
2023-03-30T21:44:51.561Z,82.04
2023-03-30T21:47:20.770Z,82.57
2023-03-30T21:49:48.417Z,81.23
2023-03-30T21:52:16.142Z,83.20
2023-03-30T21:54:43.781Z,83.16
2023-03-30T21:57:11.537Z,83.70
2023-03-30T21:59:39.311Z,84.20
2023-03-30T22:02:06.983Z,84.34
2023-03-30T22:04:36.078Z,83.33
2023-03-30T22:07:04.094Z,84.08
2023-03-30T22:09:32.104Z,83.76
2023-03-30T22:11:59.943Z,83.55
2023-03-30T22:14:27.711Z,84.91
2023-03-30T22:16:55.467Z,84.48
2023-03-30T22:19:24.526Z,83.66
2023-03-30T22:21:53.594Z,85.96
2023-03-30T22:24:21.372Z,86.37
2023-03-30T22:26:49.203Z,88.39
2023-03-30T22:29:20.606Z,91.06
2023-03-30T22:31:48.337Z,89.44
2023-03-30T22:34:16.224Z,89.33
2023-03-30T22:36:43.977Z,89.99
2023-03-30T22:39:13.023Z,91.27
2023-03-30T22:41:41.119Z,91.80
2023-03-30T22:44:08.842Z,92.50
2023-03-30T22:46:36.541Z,96.65
2023-03-30T22:49:04.182Z,97.94
2023-03-30T22:51:33.976Z,95.78
2023-03-30T22:54:01.750Z,97.13
2023-03-30T22:56:31.441Z,95.45
2023-03-30T22:59:00.818Z,94.23
2023-03-30T23:01:32.285Z,95.62
2023-03-30T23:04:00.663Z,92.99
2023-03-30T23:06:28.430Z,92.28
2023-03-30T23:08:56.103Z,90.40
2023-03-30T23:11:23.905Z,89.16
2023-03-30T23:13:53.954Z,90.06
2023-03-30T23:16:21.773Z,94.44
2023-03-30T23:18:49.823Z,91.63
2023-03-30T23:21:17.855Z,88.50
2023-03-30T23:23:45.651Z,89.32
2023-03-30T23:26:13.376Z,93.63
2023-03-30T23:28:42.945Z,91.65
2023-03-30T23:31:13.872Z,91.10
2023-03-30T23:33:41.856Z,92.51
2023-03-30T23:36:13.400Z,92.51
2023-03-30T23:38:41.424Z,99.50
2023-03-30T23:41:09.248Z,97.82
2023-03-30T23:43:37.043Z,97.08
2023-03-30T23:46:05.308Z,98.04
2023-03-30T23:48:34.627Z,93.66
2023-03-30T23:51:02.448Z,98.27
2023-03-30T23:53:30.320Z,96.02
2023-03-30T23:55:58.286Z,95.73
2023-03-30T23:58:26.340Z,97.39
